createdAt,value
2022-08-05T00:01:35.459Z,98.50
2022-08-05T00:04:08.173Z,98.70
2022-08-05T00:06:37.857Z,98.40
2022-08-05T00:09:12.868Z,98.80
2022-08-05T00:11:49.469Z,99.00
2022-08-05T00:14:27.485Z,99.60
2022-08-05T00:16:57.221Z,99.90
2022-08-05T00:19:40.641Z,99.90
2022-08-05T00:22:15.148Z,99.90
2022-08-05T00:24:46.087Z,99.90
2022-08-05T00:27:36.326Z,99.90
2022-08-05T00:30:11.296Z,99.90
2022-08-05T00:32:40.569Z,99.90
2022-08-05T00:35:09.686Z,99.90
2022-08-05T00:37:52.384Z,99.90
2022-08-05T00:40:26.723Z,99.90
2022-08-05T00:42:57.590Z,99.90
2022-08-05T00:45:38.057Z,99.90
2022-08-05T00:48:10.062Z,99.90
2022-08-05T00:50:38.990Z,99.90
2022-08-05T00:54:00.707Z,99.90
2022-08-05T00:55:59.696Z,99.90
2022-08-05T00:58:28.257Z,99.90
2022-08-05T01:00:56.478Z,99.90
2022-08-05T01:03:31.028Z,99.90
2022-08-05T01:06:03.779Z,99.90
2022-08-05T01:08:42.834Z,99.90
2022-08-05T01:11:22.495Z,99.90
2022-08-05T01:14:01.181Z,99.90
2022-08-05T01:16:34.793Z,99.90
2022-08-05T01:19:14.157Z,99.90
2022-08-05T01:22:27.987Z,99.90
2022-08-05T01:25:10.080Z,99.90
2022-08-05T01:28:14.312Z,99.90
2022-08-05T01:30:53.728Z,99.90
2022-08-05T01:33:35.500Z,99.90
2022-08-05T01:36:13.135Z,99.90
2022-08-05T01:38:46.402Z,99.90
2022-08-05T01:41:22.034Z,99.90
2022-08-05T01:43:53.157Z,99.90
2022-08-05T01:46:41.482Z,99.90
2022-08-05T01:49:23.054Z,99.90
2022-08-05T01:51:56.240Z,99.90
2022-08-05T01:54:31.137Z,99.90
2022-08-05T01:58:12.247Z,99.90
2022-08-05T01:59:52.632Z,99.90
2022-08-05T02:02:28.420Z,99.90
2022-08-05T02:04:59.366Z,99.90
2022-08-05T02:07:30.461Z,99.90
2022-08-05T02:09:58.950Z,99.90
2022-08-05T02:12:35.754Z,99.90
2022-08-05T02:15:12.407Z,99.90
2022-08-05T02:18:32.146Z,99.90
2022-08-05T02:20:48.569Z,99.90
2022-08-05T02:23:21.691Z,99.90
2022-08-05T02:25:52.044Z,99.90
2022-08-05T02:28:28.633Z,99.90
2022-08-05T02:31:04.118Z,99.90
2022-08-05T02:33:38.472Z,99.90
2022-08-05T02:36:10.312Z,99.90
2022-08-05T02:38:43.796Z,99.90
2022-08-05T02:41:22.957Z,99.90
2022-08-05T02:44:02.443Z,99.90
2022-08-05T02:46:53.738Z,99.90
2022-08-05T02:49:27.209Z,99.90
2022-08-05T02:52:06.833Z,99.90
2022-08-05T02:54:37.423Z,99.90
2022-08-05T02:57:09.881Z,99.90
2022-08-05T02:59:56.277Z,99.90
2022-08-05T03:02:29.908Z,99.90
2022-08-05T03:05:00.105Z,99.90
2022-08-05T03:08:00.937Z,99.90
2022-08-05T03:10:21.841Z,99.90
2022-08-05T03:12:53.940Z,99.90
2022-08-05T03:15:23.477Z,99.90
2022-08-05T03:17:55.553Z,99.90
2022-08-05T03:20:24.920Z,99.90
2022-08-05T03:22:55.376Z,99.90
2022-08-05T03:25:32.809Z,99.90
2022-08-05T03:28:18.648Z,99.90
2022-08-05T03:30:49.187Z,99.90
2022-08-05T03:33:19.385Z,99.90
2022-08-05T03:35:48.285Z,99.90
2022-08-05T03:38:32.664Z,99.90
2022-08-05T03:41:08.445Z,99.90
2022-08-05T03:44:09.637Z,99.90
2022-08-05T03:46:29.764Z,99.90
2022-08-05T03:48:59.774Z,99.90
2022-08-05T03:52:37.710Z,99.90
2022-08-05T03:56:09.851Z,99.90
2022-08-05T03:57:21.876Z,99.90
2022-08-05T04:00:12.566Z,99.90
2022-08-05T04:02:57.943Z,99.90
2022-08-05T04:05:33.963Z,99.90
2022-08-05T04:08:05.819Z,99.90
2022-08-05T04:10:53.055Z,99.90
2022-08-05T04:13:21.675Z,99.90
2022-08-05T04:16:02.816Z,99.90
2022-08-05T04:18:32.258Z,99.90
2022-08-05T04:21:05.417Z,99.90
2022-08-05T04:24:05.147Z,99.90
2022-08-05T04:26:23.549Z,99.90
2022-08-05T04:28:52.131Z,99.90
2022-08-05T04:31:20.503Z,99.90
2022-08-05T04:34:19.302Z,99.90
2022-08-05T04:36:45.576Z,99.90
2022-08-05T04:39:17.656Z,99.90
2022-08-05T04:41:48.167Z,99.90
2022-08-05T04:44:29.079Z,99.90
2022-08-05T04:46:58.574Z,99.90
2022-08-05T04:49:38.619Z,99.90
2022-08-05T04:52:16.608Z,99.90
2022-08-05T04:54:44.753Z,99.90
2022-08-05T04:57:12.757Z,99.90
2022-08-05T04:59:41.135Z,99.90
2022-08-05T05:02:37.593Z,99.90
2022-08-05T05:05:02.780Z,99.90
2022-08-05T05:07:35.666Z,99.90
2022-08-05T05:10:06.276Z,99.90
2022-08-05T05:12:36.718Z,99.90
2022-08-05T05:15:10.900Z,99.90
2022-08-05T05:17:56.672Z,99.90
2022-08-05T05:20:28.507Z,99.90
2022-08-05T05:22:58.564Z,99.90
2022-08-05T05:25:40.345Z,99.90
2022-08-05T05:28:09.313Z,99.90
2022-08-05T05:30:37.926Z,99.90
2022-08-05T05:33:15.934Z,99.90
2022-08-05T05:35:48.038Z,99.90
2022-08-05T05:38:27.200Z,99.90
2022-08-05T05:40:57.035Z,99.90
2022-08-05T05:43:57.246Z,99.90
2022-08-05T05:46:17.345Z,99.90
2022-08-05T05:48:47.862Z,99.90
2022-08-05T05:51:21.419Z,99.90
2022-08-05T05:53:58.367Z,99.90
2022-08-05T05:56:32.984Z,99.90
2022-08-05T05:59:05.086Z,99.90
2022-08-05T06:01:37.074Z,99.90
2022-08-05T06:04:08.121Z,99.90
2022-08-05T06:06:37.060Z,99.90
2022-08-05T06:09:17.389Z,99.90
2022-08-05T06:12:01.747Z,99.90
2022-08-05T06:14:33.270Z,99.90
2022-08-05T06:17:21.728Z,99.90
2022-08-05T06:19:56.831Z,99.90
2022-08-05T06:22:29.867Z,99.90
2022-08-05T06:24:59.888Z,99.90
2022-08-05T06:28:12.713Z,99.90
2022-08-05T06:30:19.937Z,99.90
2022-08-05T06:32:50.633Z,99.90
2022-08-05T06:36:02.926Z,99.90
2022-08-05T06:38:10.113Z,99.90
2022-08-05T06:40:42.263Z,99.90
2022-08-05T06:43:58.457Z,99.90
2022-08-05T06:46:06.642Z,99.90
2022-08-05T06:48:56.379Z,99.90
2022-08-05T06:51:30.014Z,99.90
2022-08-05T06:53:59.375Z,99.90
2022-08-05T06:56:30.143Z,99.90
2022-08-05T06:59:01.660Z,99.90
2022-08-05T07:01:32.183Z,99.90
2022-08-05T07:04:03.139Z,99.90
2022-08-05T07:06:31.889Z,99.90
2022-08-05T07:09:04.194Z,99.90
2022-08-05T07:11:37.125Z,99.90
2022-08-05T07:14:29.808Z,99.90
2022-08-05T07:18:01.400Z,99.90
2022-08-05T07:22:41.954Z,99.90
2022-08-05T07:25:54.085Z,99.90
2022-08-05T07:28:07.253Z,99.90
2022-08-05T07:30:39.746Z,99.90
2022-08-05T07:33:16.496Z,99.90
2022-08-05T07:36:03.567Z,99.90
2022-08-05T07:38:42.660Z,99.90
2022-08-05T07:42:06.863Z,99.90
2022-08-05T07:44:03.983Z,99.90
2022-08-05T07:46:36.281Z,99.90
2022-08-05T07:49:07.835Z,99.90
2022-08-05T07:51:40.882Z,99.90
2022-08-05T07:54:18.701Z,99.90
2022-08-05T07:57:01.717Z,99.90
2022-08-05T07:59:39.725Z,99.90
2022-08-05T08:02:16.232Z,99.90
2022-08-05T08:04:48.211Z,99.90
2022-08-05T08:07:17.941Z,99.90
2022-08-05T08:09:46.597Z,99.90
2022-08-05T08:12:35.397Z,99.90
2022-08-05T08:15:09.733Z,99.90
2022-08-05T08:17:50.789Z,99.90
2022-08-05T08:20:43.532Z,99.90
2022-08-05T08:23:11.728Z,99.90
2022-08-05T08:26:00.107Z,99.90
2022-08-05T08:28:36.155Z,99.90
2022-08-05T08:31:07.931Z,99.90
2022-08-05T08:33:37.897Z,99.90
2022-08-05T08:36:39.263Z,99.90
2022-08-05T08:38:56.993Z,99.90
2022-08-05T08:41:51.091Z,99.90
2022-08-05T08:45:22.578Z,99.90
2022-08-05T08:47:47.179Z,99.90
2022-08-05T08:50:06.197Z,99.90
2022-08-05T08:52:51.733Z,99.90
2022-08-05T08:56:03.140Z,99.90
2022-08-05T08:58:12.926Z,99.90
2022-08-05T09:00:42.926Z,99.90
2022-08-05T09:03:16.159Z,99.90
2022-08-05T09:06:09.233Z,99.90
2022-08-05T09:08:40.050Z,99.90
2022-08-05T09:11:13.717Z,99.90
2022-08-05T09:14:00.992Z,99.90
2022-08-05T09:16:31.055Z,99.90
2022-08-05T09:19:00.559Z,99.90
2022-08-05T09:22:22.888Z,99.90
2022-08-05T09:24:18.330Z,99.90
2022-08-05T09:26:52.499Z,99.90
2022-08-05T09:29:20.774Z,99.90
2022-08-05T09:32:41.921Z,99.90
2022-08-05T09:34:56.021Z,99.90
2022-08-05T09:38:16.403Z,99.90
2022-08-05T09:40:30.966Z,99.90
2022-08-05T09:43:01.171Z,99.90
2022-08-05T09:46:06.524Z,99.90
2022-08-05T09:48:30.061Z,99.90
2022-08-05T09:51:01.932Z,99.90
2022-08-05T09:53:54.062Z,99.90
2022-08-05T09:56:27.070Z,99.90
2022-08-05T09:59:04.037Z,99.90
2022-08-05T10:01:35.185Z,99.90
2022-08-05T10:04:11.043Z,99.90
2022-08-05T10:06:54.773Z,99.90
2022-08-05T10:09:28.153Z,99.90
2022-08-05T10:16:52.760Z,99.90
2022-08-05T10:20:02.714Z,99.90
2022-08-05T10:22:30.098Z,99.90
2022-08-05T10:24:59.154Z,99.90
2022-08-05T10:28:09.651Z,99.80
2022-08-05T10:31:20.213Z,99.90
2022-08-05T10:33:14.890Z,99.90
2022-08-05T10:35:59.231Z,99.90
2022-08-05T10:38:33.188Z,99.90
2022-08-05T10:41:07.930Z,99.90
2022-08-05T10:43:59.267Z,99.90
2022-08-05T10:47:31.289Z,99.90
2022-08-05T10:50:36.470Z,99.30
2022-08-05T10:53:06.829Z,99.70
2022-08-05T11:00:03.157Z,99.40
2022-08-05T11:02:51.553Z,99.90
2022-08-05T11:05:49.916Z,99.70
2022-08-05T11:08:39.121Z,99.70
2022-08-05T11:26:29.181Z,99.90
2022-08-05T11:29:13.385Z,98.90
2022-08-05T11:32:25.660Z,99.40
2022-08-05T11:34:54.240Z,99.90
2022-08-05T11:38:26.390Z,99.90
2022-08-05T11:46:27.088Z,99.70
2022-08-05T11:48:39.853Z,99.00
2022-08-05T11:59:41.224Z,97.80
2022-08-05T12:02:30.057Z,97.60
2022-08-05T12:05:07.175Z,97.20
2022-08-05T12:15:49.983Z,97.00
2022-08-05T12:18:59.085Z,97.70
2022-08-05T12:24:50.683Z,97.40
2022-08-05T12:27:53.066Z,97.20
2022-08-05T12:30:47.284Z,97.20
2022-08-05T12:33:27.544Z,97.40
2022-08-05T12:36:38.859Z,96.90
2022-08-05T12:40:10.719Z,97.30
2022-08-05T12:47:25.455Z,97.70
2022-08-05T12:52:10.580Z,96.80
2022-08-05T12:54:16.556Z,96.80
2022-08-05T12:56:54.513Z,97.00
2022-08-05T12:59:27.585Z,96.80
2022-08-05T13:02:14.290Z,96.70
2022-08-05T13:04:52.585Z,96.80
2022-08-05T13:07:47.798Z,97.00
2022-08-05T13:10:19.755Z,96.70
2022-08-05T13:12:57.108Z,96.60
2022-08-05T13:15:41.241Z,96.80
2022-08-05T13:18:19.411Z,96.30
2022-08-05T13:23:55.474Z,96.90
2022-08-05T13:26:29.901Z,96.90
2022-08-05T13:29:03.205Z,95.70
2022-08-05T13:32:03.911Z,95.70
2022-08-05T13:34:27.617Z,96.50
2022-08-05T13:37:04.263Z,96.20
2022-08-05T13:40:16.783Z,96.00
2022-08-05T13:52:29.166Z,95.70
2022-08-05T13:55:07.354Z,95.40
2022-08-05T13:57:51.203Z,95.90
2022-08-05T14:00:26.825Z,96.90
2022-08-05T14:02:56.828Z,96.20
2022-08-05T14:10:11.742Z,95.70
2022-08-05T14:20:07.587Z,95.50
2022-08-05T14:22:39.777Z,96.00
2022-08-05T14:25:28.075Z,96.00
2022-08-05T14:28:01.340Z,95.70
2022-08-05T14:30:29.920Z,96.10
2022-08-05T14:32:59.611Z,96.50
2022-08-05T14:38:52.437Z,96.80
2022-08-05T14:41:22.361Z,96.70
2022-08-05T14:44:01.666Z,96.60
2022-08-05T14:46:42.399Z,96.70
2022-08-05T14:50:17.371Z,97.20
2022-08-05T14:53:44.853Z,97.10
2022-08-05T14:57:02.678Z,96.60
2022-08-05T14:59:39.540Z,96.50
2022-08-05T15:13:00.868Z,96.20
2022-08-05T15:15:54.885Z,96.00
2022-08-05T15:18:22.971Z,95.30
2022-08-05T15:20:51.348Z,95.10
2022-08-05T15:23:19.547Z,95.60
2022-08-05T15:25:52.279Z,95.50
2022-08-05T15:28:27.295Z,95.80
2022-08-05T15:30:57.702Z,96.20
2022-08-05T15:34:05.324Z,96.80
2022-08-05T15:36:17.497Z,95.60
2022-08-05T15:40:59.658Z,95.70
2022-08-05T15:41:55.858Z,96.30
2022-08-05T15:44:51.813Z,96.70
2022-08-05T16:07:13.578Z,99.90
2022-08-05T16:09:44.078Z,99.90
2022-08-05T16:12:12.267Z,99.90
2022-08-05T16:22:52.597Z,99.90
2022-08-05T16:29:50.425Z,99.90
2022-08-05T16:44:57.037Z,99.90
2022-08-05T16:58:35.560Z,99.90
2022-08-05T17:01:06.608Z,99.90
2022-08-05T17:03:38.934Z,99.90
2022-08-05T17:06:08.029Z,99.90
2022-08-05T17:08:54.896Z,99.90
2022-08-05T17:22:46.004Z,99.90
2022-08-05T17:26:12.671Z,99.90
2022-08-05T17:28:43.328Z,99.90
2022-08-05T17:31:24.414Z,99.90
2022-08-05T17:34:12.303Z,99.90
2022-08-05T17:40:32.346Z,99.90
2022-08-05T17:47:11.632Z,99.90
2022-08-05T17:49:59.715Z,99.90
2022-08-05T17:52:31.619Z,99.90
2022-08-05T17:55:49.037Z,99.90
2022-08-05T18:02:24.180Z,99.90
2022-08-05T18:05:00.529Z,99.90
2022-08-05T18:07:41.724Z,99.90
2022-08-05T18:10:14.049Z,99.90
2022-08-05T18:12:49.523Z,99.90
2022-08-05T18:15:17.871Z,99.90
2022-08-05T18:17:58.959Z,99.90
2022-08-05T18:21:13.334Z,99.90
2022-08-05T18:27:52.440Z,99.90
2022-08-05T18:30:20.976Z,99.90
2022-08-05T18:32:53.383Z,99.90
2022-08-05T18:36:01.398Z,99.90
2022-08-05T18:38:26.028Z,99.90
2022-08-05T18:41:57.469Z,99.90
2022-08-05T18:43:48.771Z,99.90
2022-08-05T18:46:20.201Z,99.90
2022-08-05T18:48:52.799Z,99.90
2022-08-05T18:52:04.053Z,99.90
2022-08-05T18:54:28.365Z,99.90
2022-08-05T18:57:09.864Z,99.90
2022-08-05T19:00:02.940Z,99.90
2022-08-05T19:06:45.339Z,99.90
2022-08-05T19:12:28.368Z,99.90
2022-08-05T19:15:00.831Z,99.90
2022-08-05T19:17:58.288Z,99.90
2022-08-05T19:20:18.999Z,99.90
2022-08-05T19:22:51.064Z,99.90
2022-08-05T19:25:29.588Z,99.90
2022-08-05T19:27:59.864Z,99.90
2022-08-05T19:30:33.436Z,99.90
2022-08-05T19:33:05.132Z,99.90
2022-08-05T19:35:56.444Z,99.90
2022-08-05T19:38:26.646Z,99.90
2022-08-05T19:40:55.076Z,99.90
2022-08-05T19:44:04.879Z,99.90
2022-08-05T19:46:29.024Z,99.90
2022-08-05T19:49:02.852Z,99.90
2022-08-05T19:52:05.132Z,99.90
2022-08-05T19:54:26.799Z,99.90
2022-08-05T19:56:59.823Z,99.90
2022-08-05T19:59:55.505Z,99.90
2022-08-05T20:02:26.183Z,99.90
2022-08-05T20:04:58.854Z,99.90
2022-08-05T20:07:46.911Z,99.90
2022-08-05T20:11:18.088Z,99.90
2022-08-05T20:17:35.314Z,99.90
2022-08-05T20:20:11.150Z,99.90
2022-08-05T20:22:41.458Z,99.90
2022-08-05T20:25:18.424Z,99.90
2022-08-05T20:27:46.835Z,99.90
2022-08-05T20:30:23.713Z,99.90
2022-08-05T20:33:15.765Z,99.90
2022-08-05T20:39:45.191Z,99.90
2022-08-05T20:42:21.783Z,99.90
2022-08-05T20:44:50.093Z,99.90
2022-08-05T20:47:18.564Z,99.90
2022-08-05T20:49:51.320Z,99.90
2022-08-05T20:52:19.528Z,99.90
2022-08-05T20:54:59.662Z,99.90
2022-08-05T20:57:47.829Z,99.90
2022-08-05T21:00:34.944Z,99.90
2022-08-05T21:03:08.058Z,99.90
2022-08-05T21:05:53.606Z,99.90
2022-08-05T21:08:26.676Z,99.90
2022-08-05T21:11:01.737Z,99.90
2022-08-05T21:13:48.319Z,99.90
2022-08-05T21:16:29.641Z,99.90
2022-08-05T21:19:00.356Z,99.90
2022-08-05T21:21:38.970Z,99.90
2022-08-05T21:24:15.433Z,99.90
2022-08-05T21:26:50.565Z,99.90
2022-08-05T21:29:31.266Z,99.90
2022-08-05T21:32:00.905Z,99.90
2022-08-05T21:34:28.975Z,99.90
2022-08-05T21:37:01.649Z,99.90
2022-08-05T21:39:30.266Z,99.90
2022-08-05T21:42:02.778Z,99.90
2022-08-05T21:44:31.800Z,99.90
2022-08-05T21:47:00.277Z,99.90
2022-08-05T21:49:48.279Z,99.90
2022-08-05T21:52:27.328Z,99.90
2022-08-05T21:54:56.549Z,99.90
2022-08-05T21:57:32.552Z,99.90
2022-08-05T22:00:06.238Z,99.90
2022-08-05T22:02:35.121Z,99.90
2022-08-05T22:05:04.308Z,99.90
2022-08-05T22:07:40.352Z,99.90
2022-08-05T22:10:25.521Z,99.90
2022-08-05T22:12:57.528Z,99.90
2022-08-05T22:16:01.060Z,99.90
2022-08-05T22:18:15.832Z,99.90
2022-08-05T22:20:47.752Z,99.90
2022-08-05T22:24:00.831Z,99.90
2022-08-05T22:26:50.012Z,99.90
2022-08-05T22:29:26.309Z,99.90
2022-08-05T22:31:59.565Z,99.90
2022-08-05T22:34:31.308Z,99.90
2022-08-05T22:37:00.589Z,99.90
2022-08-05T22:39:34.556Z,99.90
2022-08-05T22:42:09.493Z,99.90
2022-08-05T22:44:56.352Z,99.90
2022-08-05T22:47:30.106Z,99.90
2022-08-05T22:50:19.595Z,99.90
2022-08-05T22:52:48.085Z,99.90
2022-08-05T22:55:21.105Z,99.90
2022-08-05T22:57:50.456Z,99.90
2022-08-05T23:00:43.614Z,99.90
2022-08-05T23:03:13.747Z,99.90
2022-08-05T23:05:42.129Z,99.90
2022-08-05T23:08:12.360Z,99.90
2022-08-05T23:10:46.054Z,99.90
2022-08-05T23:13:14.555Z,99.90
2022-08-05T23:15:42.797Z,99.90
2022-08-05T23:18:11.574Z,99.90
2022-08-05T23:20:43.976Z,99.90
2022-08-05T23:23:12.353Z,99.90
2022-08-05T23:25:51.905Z,99.90
2022-08-05T23:28:27.675Z,99.90
2022-08-05T23:31:16.119Z,99.90
2022-08-05T23:34:03.781Z,99.90
2022-08-05T23:36:39.729Z,99.90
2022-08-05T23:39:17.244Z,99.90
2022-08-05T23:41:52.259Z,99.90
2022-08-05T23:44:25.104Z,99.90
2022-08-05T23:46:56.162Z,99.90
2022-08-05T23:49:35.796Z,99.90
2022-08-05T23:52:21.984Z,99.90
2022-08-05T23:54:54.614Z,99.90
2022-08-05T23:57:24.393Z,99.90
